createdAt,value
2022-08-04T00:00:40.417Z,22.65
2022-08-04T00:03:18.185Z,22.58
2022-08-04T00:06:04.667Z,22.56
2022-08-04T00:08:46.251Z,22.50
2022-08-04T00:11:19.840Z,22.41
2022-08-04T00:14:03.066Z,22.35
2022-08-04T00:16:37.769Z,22.38
2022-08-04T00:19:22.147Z,22.39
2022-08-04T00:21:56.694Z,22.41
2022-08-04T00:24:23.861Z,22.43
2022-08-04T00:26:54.034Z,22.40
2022-08-04T00:29:21.945Z,22.39
2022-08-04T00:31:56.497Z,22.41
2022-08-04T00:34:28.552Z,22.40
2022-08-04T00:36:56.538Z,22.40
2022-08-04T00:39:23.413Z,22.38
2022-08-04T00:41:57.057Z,22.36
2022-08-04T00:44:54.241Z,22.36
2022-08-04T00:47:40.405Z,22.37
2022-08-04T00:50:28.935Z,22.34
2022-08-04T00:53:14.451Z,22.29
2022-08-04T00:55:49.767Z,22.29
2022-08-04T00:58:50.420Z,22.24
2022-08-04T01:01:35.390Z,22.18
2022-08-04T01:04:22.329Z,22.15
2022-08-04T01:07:15.439Z,22.18
2022-08-04T01:09:57.106Z,22.20
2022-08-04T01:12:41.711Z,22.23
2022-08-04T01:15:23.009Z,22.20
2022-08-04T01:18:01.636Z,22.22
2022-08-04T01:20:35.037Z,22.21
2022-08-04T01:23:32.389Z,22.14
2022-08-04T01:26:43.855Z,22.14
2022-08-04T01:29:24.591Z,22.09
2022-08-04T01:32:04.765Z,22.04
2022-08-04T01:34:36.652Z,22.01
2022-08-04T01:37:18.494Z,21.93
2022-08-04T01:39:56.584Z,21.92
2022-08-04T01:42:31.612Z,21.87
2022-08-04T01:45:02.515Z,21.82
2022-08-04T01:47:30.794Z,21.78
2022-08-04T01:50:06.053Z,21.78
2022-08-04T01:52:34.960Z,21.69
2022-08-04T01:55:05.150Z,21.65
2022-08-04T01:57:38.637Z,21.55
2022-08-04T02:00:06.902Z,21.40
2022-08-04T02:02:34.252Z,21.38
2022-08-04T02:05:00.851Z,21.38
2022-08-04T02:07:40.440Z,21.39
2022-08-04T02:10:49.379Z,21.40
2022-08-04T02:13:28.316Z,21.38
2022-08-04T02:16:28.144Z,21.36
2022-08-04T02:19:19.939Z,21.30
2022-08-04T02:21:51.563Z,21.30
2022-08-04T02:24:24.447Z,21.25
2022-08-04T02:26:53.515Z,21.17
2022-08-04T02:29:29.223Z,21.12
2022-08-04T02:32:04.370Z,21.11
2022-08-04T02:34:47.909Z,21.05
2022-08-04T02:37:17.293Z,21.04
2022-08-04T02:39:48.451Z,21.12
2022-08-04T02:42:16.678Z,21.11
2022-08-04T02:44:43.402Z,21.10
2022-08-04T02:47:11.589Z,21.06
2022-08-04T02:49:41.236Z,21.07
2022-08-04T02:52:12.553Z,21.06
2022-08-04T02:54:40.999Z,21.08
2022-08-04T02:57:12.430Z,21.02
2022-08-04T02:59:51.600Z,20.96
2022-08-04T03:02:28.756Z,20.94
2022-08-04T03:05:02.510Z,20.88
2022-08-04T03:07:51.582Z,20.81
2022-08-04T03:10:55.264Z,20.76
2022-08-04T03:13:59.722Z,20.71
2022-08-04T03:16:51.797Z,20.67
2022-08-04T03:19:58.482Z,20.67
2022-08-04T03:23:12.121Z,20.66
2022-08-04T03:26:17.272Z,20.61
2022-08-04T03:29:08.316Z,20.47
2022-08-04T03:31:53.178Z,20.30
2022-08-04T03:35:02.653Z,20.34
2022-08-04T03:37:58.317Z,20.42
2022-08-04T03:40:30.514Z,20.42
2022-08-04T03:43:57.115Z,20.43
2022-08-04T03:46:25.735Z,20.43
2022-08-04T03:49:32.879Z,20.44
2022-08-04T03:52:55.174Z,20.42
2022-08-04T03:55:40.047Z,20.41
2022-08-04T03:58:52.678Z,20.42
2022-08-04T04:02:02.737Z,20.47
2022-08-04T04:05:03.938Z,20.45
2022-08-04T04:07:59.653Z,20.46
2022-08-04T04:10:51.670Z,20.45
2022-08-04T04:13:49.418Z,20.46
2022-08-04T04:16:58.064Z,20.50
2022-08-04T04:19:52.354Z,20.49
2022-08-04T04:22:53.762Z,20.53
2022-08-04T04:25:41.522Z,20.58
2022-08-04T04:28:43.494Z,20.55
2022-08-04T04:31:49.359Z,20.56
2022-08-04T04:34:35.299Z,20.59
2022-08-04T04:37:20.749Z,20.66
2022-08-04T04:40:03.375Z,20.73
2022-08-04T04:42:49.608Z,20.74
2022-08-04T04:45:34.463Z,20.78
2022-08-04T04:48:17.816Z,20.80
2022-08-04T04:50:47.096Z,20.88
2022-08-04T04:53:24.001Z,21.00
2022-08-04T04:56:05.606Z,21.16
2022-08-04T04:58:34.070Z,21.32
2022-08-04T05:01:09.374Z,21.47
2022-08-04T05:03:52.061Z,21.72
2022-08-04T05:06:54.352Z,21.89
2022-08-04T05:09:31.177Z,22.07
2022-08-04T05:14:24.848Z,22.33
2022-08-04T05:14:58.337Z,22.59
2022-08-04T05:17:33.740Z,22.85
2022-08-04T05:20:08.136Z,23.01
2022-08-04T05:22:56.812Z,23.27
2022-08-04T05:25:34.715Z,23.48
2022-08-04T05:28:12.144Z,23.69
2022-08-04T05:30:48.582Z,23.84
2022-08-04T05:33:31.236Z,24.10
2022-08-04T05:36:18.503Z,24.29
2022-08-04T05:38:59.987Z,24.44
2022-08-04T05:41:44.918Z,24.59
2022-08-04T05:44:15.084Z,24.78
2022-08-04T05:46:43.586Z,25.02
2022-08-04T05:49:10.766Z,25.34
2022-08-04T05:51:47.290Z,25.61
2022-08-04T05:54:15.167Z,25.86
2022-08-04T05:56:42.495Z,26.11
2022-08-04T05:59:12.642Z,26.30
2022-08-04T06:01:55.485Z,26.51
2022-08-04T06:04:31.229Z,26.83
2022-08-04T06:06:57.727Z,26.97
2022-08-04T06:09:24.343Z,27.24
2022-08-04T06:12:02.131Z,27.38
2022-08-04T06:14:39.446Z,27.73
2022-08-04T06:18:33.367Z,27.91
2022-08-04T06:19:59.898Z,28.14
2022-08-04T06:22:34.292Z,28.20
2022-08-04T06:25:02.814Z,28.46
2022-08-04T06:27:31.499Z,28.73
2022-08-04T06:29:59.843Z,28.91
2022-08-04T06:32:34.687Z,29.02
2022-08-04T06:35:05.019Z,29.24
2022-08-04T06:37:42.058Z,29.50
2022-08-04T06:40:31.702Z,29.69
2022-08-04T06:43:00.664Z,29.89
2022-08-04T06:45:27.772Z,30.25
2022-08-04T06:47:55.411Z,30.21
2022-08-04T06:51:25.475Z,30.42
2022-08-04T06:53:09.808Z,30.54
2022-08-04T06:55:37.233Z,30.76
2022-08-04T06:58:05.120Z,30.86
2022-08-04T07:00:32.376Z,31.04
2022-08-04T07:02:59.603Z,31.20
2022-08-04T07:05:26.678Z,31.33
2022-08-04T07:07:56.859Z,31.56
2022-08-04T07:10:28.450Z,31.57
2022-08-04T07:12:59.400Z,31.75
2022-08-04T07:15:26.671Z,31.82
2022-08-04T07:17:54.099Z,31.91
2022-08-04T07:20:34.556Z,32.21
2022-08-04T07:23:03.393Z,32.18
2022-08-04T07:26:00.705Z,32.32
2022-08-04T07:28:16.612Z,32.46
2022-08-04T07:30:44.824Z,32.66
2022-08-04T07:33:11.666Z,32.83
2022-08-04T07:36:04.858Z,32.65
2022-08-04T07:38:27.713Z,32.68
2022-08-04T07:40:55.414Z,32.77
2022-08-04T07:43:22.782Z,32.85
2022-08-04T07:45:49.490Z,33.13
2022-08-04T07:48:18.659Z,33.41
2022-08-04T07:50:45.482Z,33.60
2022-08-04T07:53:55.558Z,33.53
2022-08-04T07:56:02.162Z,33.62
2022-08-04T07:58:30.257Z,33.84
2022-08-04T08:00:57.677Z,33.90
2022-08-04T08:03:25.166Z,33.92
2022-08-04T08:06:16.408Z,34.13
2022-08-04T08:08:39.516Z,34.18
2022-08-04T08:11:07.177Z,33.94
2022-08-04T08:13:34.722Z,34.06
2022-08-04T08:16:01.597Z,34.39
2022-08-04T08:18:28.031Z,34.45
2022-08-04T08:20:55.391Z,34.66
2022-08-04T08:23:22.290Z,34.74
2022-08-04T08:25:49.321Z,34.98
2022-08-04T08:28:16.656Z,35.09
2022-08-04T08:30:43.222Z,34.98
2022-08-04T08:33:14.884Z,35.12
2022-08-04T08:35:54.704Z,35.38
2022-08-04T08:38:33.338Z,35.49
2022-08-04T08:41:30.630Z,35.58
2022-08-04T08:44:37.530Z,35.72
2022-08-04T08:48:05.487Z,35.65
2022-08-04T08:50:49.568Z,35.65
2022-08-04T08:53:36.114Z,35.80
2022-08-04T08:56:16.437Z,36.04
2022-08-04T08:59:01.741Z,36.18
2022-08-04T09:02:19.982Z,36.03
2022-08-04T09:04:59.127Z,35.93
2022-08-04T09:07:45.110Z,36.12
2022-08-04T09:10:41.073Z,36.25
2022-08-04T09:13:19.652Z,36.38
2022-08-04T09:16:10.369Z,36.33
2022-08-04T09:18:46.011Z,36.40
2022-08-04T09:21:33.343Z,36.42
2022-08-04T09:24:35.066Z,36.71
2022-08-04T09:27:09.812Z,36.83
2022-08-04T09:29:45.192Z,36.99
2022-08-04T09:32:23.538Z,37.11
2022-08-04T09:35:08.432Z,37.21
2022-08-04T09:37:45.888Z,37.14
2022-08-04T09:40:31.831Z,37.31
2022-08-04T09:43:57.124Z,37.32
2022-08-04T09:46:27.825Z,37.25
2022-08-04T09:49:02.567Z,37.15
2022-08-04T09:51:57.403Z,37.11
2022-08-04T09:54:44.145Z,37.05
2022-08-04T09:57:29.826Z,36.84
2022-08-04T10:00:05.390Z,36.88
2022-08-04T10:02:42.551Z,36.93
2022-08-04T10:05:16.250Z,37.31
2022-08-04T10:07:59.495Z,37.38
2022-08-04T10:10:56.556Z,37.39
2022-08-04T10:13:39.257Z,37.88
2022-08-04T10:16:29.634Z,38.00
2022-08-04T10:19:17.444Z,38.07
2022-08-04T10:22:26.927Z,37.86
2022-08-04T10:25:02.231Z,38.12
2022-08-04T10:27:44.629Z,38.26
2022-08-04T10:30:13.820Z,38.22
2022-08-04T10:33:03.903Z,38.14
2022-08-04T10:35:38.560Z,38.29
2022-08-04T10:38:30.831Z,38.37
2022-08-04T10:41:06.424Z,38.36
2022-08-04T10:43:35.518Z,38.45
2022-08-04T10:46:16.194Z,38.49
2022-08-04T10:49:07.364Z,38.76
2022-08-04T10:52:05.299Z,38.62
2022-08-04T10:54:53.583Z,38.70
2022-08-04T10:57:28.502Z,38.66
2022-08-04T11:00:09.624Z,38.52
2022-08-04T11:02:54.275Z,38.10
2022-08-04T11:05:27.235Z,38.40
2022-08-04T11:08:00.207Z,38.21
2022-08-04T11:10:32.994Z,38.25
2022-08-04T11:13:22.004Z,38.04
2022-08-04T11:16:00.534Z,38.39
2022-08-04T11:18:42.715Z,38.74
2022-08-04T11:21:21.357Z,39.07
2022-08-04T11:24:26.483Z,39.26
2022-08-04T11:27:03.827Z,38.61
2022-08-04T11:29:59.025Z,38.45
2022-08-04T11:33:01.066Z,38.24
2022-08-04T11:35:52.489Z,38.06
2022-08-04T11:38:21.516Z,37.94
2022-08-04T11:41:03.144Z,37.95
2022-08-04T11:44:01.662Z,37.76
2022-08-04T11:46:38.400Z,38.44
2022-08-04T11:49:11.829Z,38.53
2022-08-04T11:51:39.600Z,38.87
2022-08-04T11:54:06.457Z,39.09
2022-08-04T11:56:35.876Z,39.14
2022-08-04T11:59:07.582Z,39.27
2022-08-04T12:02:05.255Z,39.11
2022-08-04T12:04:50.153Z,38.93
2022-08-04T12:08:03.293Z,39.09
2022-08-04T12:10:57.557Z,39.03
2022-08-04T12:13:34.928Z,39.04
2022-08-04T12:16:14.882Z,39.22
2022-08-04T12:18:57.501Z,39.47
2022-08-04T12:21:39.610Z,39.53
2022-08-04T12:24:20.004Z,39.64
2022-08-04T12:26:53.936Z,39.57
2022-08-04T12:29:22.633Z,39.75
2022-08-04T12:32:10.289Z,39.72
2022-08-04T12:34:46.273Z,39.51
2022-08-04T12:37:34.835Z,39.71
2022-08-04T12:40:29.209Z,39.69
2022-08-04T12:43:23.359Z,39.96
2022-08-04T12:45:52.982Z,40.04
2022-08-04T12:48:21.553Z,39.74
2022-08-04T12:50:53.894Z,39.74
2022-08-04T12:53:31.917Z,39.75
2022-08-04T12:56:01.785Z,39.73
2022-08-04T12:58:42.306Z,39.75
2022-08-04T13:02:08.014Z,39.82
2022-08-04T13:04:15.319Z,40.07
2022-08-04T13:06:43.202Z,40.19
2022-08-04T13:09:18.571Z,40.16
2022-08-04T13:11:53.246Z,39.83
2022-08-04T13:14:27.014Z,39.66
2022-08-04T13:16:58.963Z,39.70
2022-08-04T13:19:27.062Z,39.68
2022-08-04T13:22:02.709Z,39.37
2022-08-04T13:24:33.651Z,39.12
2022-08-04T13:27:06.765Z,39.27
2022-08-04T13:29:59.401Z,39.65
2022-08-04T13:32:29.888Z,39.63
2022-08-04T13:34:59.837Z,39.84
2022-08-04T13:37:33.397Z,39.94
2022-08-04T13:40:03.439Z,40.29
2022-08-04T13:42:31.160Z,40.37
2022-08-04T13:45:00.943Z,40.38
2022-08-04T13:47:34.848Z,40.29
2022-08-04T13:50:15.332Z,40.22
2022-08-04T13:52:43.278Z,39.77
2022-08-04T13:55:24.849Z,40.10
2022-08-04T13:57:57.607Z,40.17
2022-08-04T14:00:30.200Z,40.32
2022-08-04T14:03:03.446Z,40.07
2022-08-04T14:05:59.559Z,39.87
2022-08-04T14:08:29.123Z,39.93
2022-08-04T14:10:58.628Z,39.93
2022-08-04T14:13:41.761Z,40.20
2022-08-04T14:16:20.289Z,40.23
2022-08-04T14:18:47.966Z,39.97
2022-08-04T14:21:17.384Z,40.09
2022-08-04T14:24:10.273Z,40.29
2022-08-04T14:26:37.086Z,40.51
2022-08-04T14:29:28.713Z,40.70
2022-08-04T14:32:10.768Z,40.48
2022-08-04T14:34:41.424Z,40.62
2022-08-04T14:37:17.297Z,40.16
2022-08-04T14:40:17.998Z,39.94
2022-08-04T14:42:55.475Z,40.08
2022-08-04T14:45:55.535Z,40.35
2022-08-04T14:48:22.747Z,40.46
2022-08-04T14:50:50.324Z,40.46
2022-08-04T14:53:20.654Z,40.51
2022-08-04T14:55:54.403Z,40.12
2022-08-04T14:58:33.911Z,40.20
2022-08-04T15:01:10.789Z,40.48
2022-08-04T15:03:51.012Z,40.43
2022-08-04T15:06:26.248Z,40.49
2022-08-04T15:08:55.417Z,40.04
2022-08-04T15:11:24.335Z,39.84
2022-08-04T15:13:56.014Z,39.76
2022-08-04T15:16:23.690Z,39.55
2022-08-04T15:18:51.113Z,39.85
2022-08-04T15:21:22.448Z,39.73
2022-08-04T15:23:50.743Z,39.70
2022-08-04T15:26:23.959Z,39.84
2022-08-04T15:28:56.086Z,39.91
2022-08-04T15:32:05.881Z,39.83
2022-08-04T15:34:12.453Z,39.72
2022-08-04T15:36:56.844Z,39.68
2022-08-04T15:39:35.999Z,39.69
2022-08-04T15:42:21.935Z,39.58
2022-08-04T15:44:51.757Z,39.54
2022-08-04T15:47:18.604Z,39.60
2022-08-04T15:49:45.734Z,39.47
2022-08-04T15:52:18.340Z,39.30
2022-08-04T15:54:52.409Z,39.11
2022-08-04T15:58:09.418Z,39.05
2022-08-04T16:00:52.065Z,39.06
2022-08-04T16:03:53.094Z,39.18
2022-08-04T16:06:20.588Z,39.06
2022-08-04T16:08:52.542Z,39.06
2022-08-04T16:11:31.087Z,38.88
2022-08-04T16:13:58.802Z,38.78
2022-08-04T16:16:45.438Z,38.67
2022-08-04T16:19:18.767Z,38.59
2022-08-04T16:21:49.781Z,38.52
2022-08-04T16:24:22.170Z,38.66
2022-08-04T16:26:56.469Z,38.59
2022-08-04T16:29:23.140Z,38.48
2022-08-04T16:32:04.997Z,38.20
2022-08-04T16:34:32.380Z,37.98
2022-08-04T16:37:14.287Z,38.07
2022-08-04T16:39:50.049Z,37.97
2022-08-04T16:42:32.859Z,37.79
2022-08-04T16:45:08.251Z,37.76
2022-08-04T16:47:49.806Z,37.75
2022-08-04T16:50:18.276Z,37.67
2022-08-04T16:52:46.368Z,37.62
2022-08-04T16:55:15.815Z,37.65
2022-08-04T16:57:46.317Z,37.73
2022-08-04T17:00:12.896Z,37.84
2022-08-04T17:02:39.634Z,37.66
2022-08-04T17:05:38.507Z,37.55
2022-08-04T17:08:28.586Z,37.59
2022-08-04T17:10:53.787Z,37.53
2022-08-04T17:14:02.348Z,37.56
2022-08-04T17:16:23.748Z,37.50
2022-08-04T17:18:52.826Z,37.59
2022-08-04T17:21:26.141Z,37.37
2022-08-04T17:24:12.679Z,37.21
2022-08-04T17:26:42.074Z,37.09
2022-08-04T17:29:18.229Z,37.06
2022-08-04T17:31:46.636Z,37.00
2022-08-04T17:34:16.745Z,37.09
2022-08-04T17:36:45.876Z,37.06
2022-08-04T17:39:21.383Z,37.03
2022-08-04T17:41:49.111Z,37.02
2022-08-04T17:44:16.406Z,36.92
2022-08-04T17:46:48.149Z,36.71
2022-08-04T17:49:18.187Z,36.66
2022-08-04T17:52:05.104Z,36.71
2022-08-04T17:54:38.961Z,36.68
2022-08-04T17:57:21.605Z,36.60
2022-08-04T17:59:57.514Z,36.50
2022-08-04T18:02:32.346Z,36.43
2022-08-04T18:05:10.007Z,36.34
2022-08-04T18:08:40.082Z,36.20
2022-08-04T18:10:51.523Z,36.11
2022-08-04T18:13:27.188Z,35.99
2022-08-04T18:19:08.096Z,35.81
2022-08-04T18:21:34.550Z,35.78
2022-08-04T18:24:14.320Z,35.69
2022-08-04T18:26:41.895Z,35.57
2022-08-04T18:29:26.620Z,35.44
2022-08-04T18:31:58.121Z,35.34
2022-08-04T18:34:24.899Z,35.20
2022-08-04T18:36:57.306Z,35.14
2022-08-04T18:40:09.781Z,35.07
2022-08-04T18:42:14.747Z,34.91
2022-08-04T18:44:52.017Z,34.79
2022-08-04T18:47:23.020Z,34.67
2022-08-04T18:50:40.194Z,34.49
2022-08-04T18:52:45.231Z,34.32
2022-08-04T18:55:12.227Z,34.13
2022-08-04T18:57:58.879Z,33.97
2022-08-04T19:00:25.128Z,33.88
2022-08-04T19:02:52.251Z,33.79
2022-08-04T19:05:19.494Z,33.67
2022-08-04T19:08:01.940Z,33.49
2022-08-04T19:10:29.095Z,33.29
2022-08-04T19:12:56.098Z,33.24
2022-08-04T19:15:22.530Z,33.15
2022-08-04T19:18:01.107Z,33.00
2022-08-04T19:20:28.568Z,32.88
2022-08-04T19:24:32.864Z,32.76
2022-08-04T19:28:34.788Z,32.52
2022-08-04T19:31:06.875Z,32.35
2022-08-04T19:33:58.418Z,32.27
2022-08-04T19:36:21.108Z,32.12
2022-08-04T19:38:55.388Z,31.99
2022-08-04T19:41:22.431Z,31.88
2022-08-04T19:43:51.416Z,31.82
2022-08-04T19:46:17.894Z,31.73
2022-08-04T19:48:44.646Z,31.68
2022-08-04T19:51:27.818Z,31.65
2022-08-04T19:53:59.211Z,31.56
2022-08-04T19:56:30.947Z,31.45
2022-08-04T19:59:07.559Z,31.37
2022-08-04T20:01:37.077Z,31.35
2022-08-04T20:04:11.346Z,31.32
2022-08-04T20:06:37.887Z,31.25
2022-08-04T20:09:04.363Z,31.16
2022-08-04T20:11:50.899Z,31.04
2022-08-04T20:14:17.811Z,31.02
2022-08-04T20:16:46.344Z,30.91
2022-08-04T20:19:14.193Z,30.84
2022-08-04T20:21:55.299Z,30.70
2022-08-04T20:24:36.800Z,30.67
2022-08-04T20:27:07.787Z,30.53
2022-08-04T20:29:40.008Z,30.25
2022-08-04T20:32:09.712Z,30.06
2022-08-04T20:34:36.740Z,30.16
2022-08-04T20:37:03.181Z,30.24
2022-08-04T20:39:30.818Z,30.21
2022-08-04T20:41:57.714Z,30.30
2022-08-04T20:44:24.475Z,30.39
2022-08-04T20:46:51.170Z,30.42
2022-08-04T20:49:17.738Z,30.34
2022-08-04T20:51:44.303Z,30.27
2022-08-04T20:54:16.506Z,30.27
2022-08-04T20:56:50.499Z,30.18
2022-08-04T20:59:18.151Z,30.12
2022-08-04T21:01:45.344Z,30.01
2022-08-04T21:04:34.087Z,29.89
2022-08-04T21:07:05.660Z,29.83
2022-08-04T21:09:37.928Z,29.81
2022-08-04T21:12:10.712Z,29.71
2022-08-04T21:14:53.554Z,29.69
2022-08-04T21:17:20.861Z,29.53
2022-08-04T21:20:07.512Z,29.26
2022-08-04T21:22:39.179Z,29.10
2022-08-04T21:25:06.066Z,29.12
2022-08-04T21:27:35.773Z,29.04
2022-08-04T21:30:21.339Z,28.95
2022-08-04T21:32:51.463Z,28.81
2022-08-04T21:35:18.891Z,28.49
2022-08-04T21:37:56.694Z,28.41
2022-08-04T21:43:11.202Z,28.56
2022-08-04T21:45:38.232Z,28.24
2022-08-04T21:48:04.989Z,28.15
2022-08-04T21:50:31.409Z,28.10
2022-08-04T21:52:58.927Z,28.28
2022-08-04T21:56:05.158Z,28.35
2022-08-04T21:58:13.434Z,28.01
2022-08-04T22:00:40.597Z,27.93
2022-08-04T22:03:11.346Z,27.93
2022-08-04T22:05:56.535Z,28.06
2022-08-04T22:08:23.595Z,28.08
2022-08-04T22:10:56.096Z,27.99
2022-08-04T22:13:24.416Z,27.68
2022-08-04T22:16:10.941Z,27.59
2022-08-04T22:18:37.353Z,27.65
2022-08-04T22:21:11.816Z,27.66
2022-08-04T22:23:45.075Z,27.55
2022-08-04T22:26:26.967Z,27.48
2022-08-04T22:28:54.742Z,27.46
2022-08-04T22:31:23.984Z,27.40
2022-08-04T22:33:54.543Z,27.30
2022-08-04T22:36:24.657Z,27.10
2022-08-04T22:38:57.050Z,27.07
2022-08-04T22:41:33.782Z,27.10
2022-08-04T22:44:01.064Z,26.96
2022-08-04T22:46:30.152Z,26.79
2022-08-04T22:48:56.879Z,26.77
2022-08-04T22:51:23.976Z,26.61
2022-08-04T22:53:53.745Z,26.35
2022-08-04T22:56:37.832Z,26.35
2022-08-04T22:59:05.825Z,26.23
2022-08-04T23:01:59.283Z,26.36
2022-08-04T23:04:21.631Z,26.35
2022-08-04T23:06:49.959Z,26.38
2022-08-04T23:09:17.072Z,26.36
2022-08-04T23:11:43.931Z,26.49
2022-08-04T23:14:10.831Z,26.55
2022-08-04T23:16:40.829Z,26.41
2022-08-04T23:19:12.064Z,26.37
2022-08-04T23:21:47.752Z,26.35
2022-08-04T23:24:29.519Z,26.31
2022-08-04T23:26:56.928Z,26.17
2022-08-04T23:29:23.428Z,25.98
2022-08-04T23:31:59.653Z,25.85
2022-08-04T23:34:29.307Z,25.93
2022-08-04T23:36:56.299Z,25.86
2022-08-04T23:39:25.835Z,25.80
2022-08-04T23:42:14.892Z,25.71
2022-08-04T23:44:41.636Z,25.83
2022-08-04T23:47:08.139Z,25.81
2022-08-04T23:49:44.044Z,25.77
2022-08-04T23:52:27.710Z,25.68
2022-08-04T23:54:59.652Z,25.59
2022-08-04T23:58:06.503Z,25.62
